WetterOnline ( https://www.wetteronline.de )

Wetter aktuell Parchim

Aktuelles Wetter: Marnitz (87m)

6-stündlich | Neueste Meldungen
Ortszeit Temperatur Wetter
So, 14.08. 20:00 27.9° C leicht bewölkt
So, 14.08. 14:00 30.7° C wolkenlos
So, 14.08. 8:00 18.5° C leicht bewölkt
So, 14.08. 2:00 19.9° C bedeckt
Sa, 13.08. 20:00 27.6° C bedeckt
Sa, 13.08. 14:00 29.5° C leicht bewölkt
Sa, 13.08. 8:00 19.2° C wolkig
Sa, 13.08. 2:00 16.8° C wolkenlos
Ortszeit Temperatur Wetter
So, 14.08. 20:00 27.9° C leicht bewölkt
So, 14.08. 19:50 27.9° C wolkig
So, 14.08. 19:40 28.2° C bedeckt
So, 14.08. 19:30 29.1° C wolkig
So, 14.08. 19:20 29.1° C wolkig
So, 14.08. 19:10 29.2° C bedeckt
So, 14.08. 19:00 29.2° C leicht bewölkt
So, 14.08. 18:30 28.9° C leicht bewölkt
So, 14.08. 18:00 29.6° C wolkig
So, 14.08. 17:30 31.4° C wolkig
So, 14.08. 17:00 30.9° C wolkig
Ortszeit Relative Feuchte Sichtweite
So, 14.08. 20:00 39% 45 km
So, 14.08. 14:00 33% 26 km
So, 14.08. 8:00 81% 35 km
So, 14.08. 2:00 69% 50 km
Sa, 13.08. 20:00 38% 40 km
Sa, 13.08. 14:00 35% 65 km
Sa, 13.08. 8:00 65% 35 km
Sa, 13.08. 2:00 67% 45 km
Ortszeit Relative Feuchte Sichtweite
So, 14.08. 20:00 39% 45 km
So, 14.08. 19:50 39% -
So, 14.08. 19:40 38% -
So, 14.08. 19:30 37% 35 km
So, 14.08. 19:20 37% -
So, 14.08. 19:10 36% -
So, 14.08. 19:00 37% 35 km
So, 14.08. 18:30 37% 40 km
So, 14.08. 18:00 34% 35 km
So, 14.08. 17:30 31% 45 km
So, 14.08. 17:00 32% 50 km
Ortszeit Niederschlagsmenge Niederschlagsart
So, 14.08. 20:00 0.0 l/m2 in 12 Std. -
So, 14.08. 14:00 0.0 l/m2 in 6 Std. -
So, 14.08. 8:00 0.0 l/m2 in 12 Std. -
So, 14.08. 2:00 0.0 l/m2 in 6 Std. -
Sa, 13.08. 20:00 0.0 l/m2 in 12 Std. -
Sa, 13.08. 14:00 0.0 l/m2 in 6 Std. -
Sa, 13.08. 8:00 0.0 l/m2 in 12 Std. -
Sa, 13.08. 2:00 0.0 l/m2 in 6 Std. -
Ortszeit Niederschlagsmenge Niederschlagsart
So, 14.08. 20:00 0.0 l/m2 in 1 Std. -
So, 14.08. 19:50 keine Meldung -
So, 14.08. 19:40 keine Meldung -
So, 14.08. 19:30 0.0 l/m2 in 1 Std. -
So, 14.08. 19:20 keine Meldung -
So, 14.08. 19:10 keine Meldung -
So, 14.08. 19:00 0.0 l/m2 in 1 Std. -
So, 14.08. 18:30 0.0 l/m2 in 1 Std. -
So, 14.08. 18:00 0.0 l/m2 in 1 Std. -
So, 14.08. 17:30 0.0 l/m2 in 1 Std. -
So, 14.08. 17:00 0.0 l/m2 in 1 Std. -
Ortszeit Stärke Spitze Richtung
km/h Bft. km/h Grad Sektor
So, 14.08. 20:00 13 3 28 90° O
So, 14.08. 14:00 13 3 31 160° S
So, 14.08. 8:00 0 0 7 - -
So, 14.08. 2:00 4 1 32 80° O
Sa, 13.08. 20:00 13 3 24 80° O
Sa, 13.08. 14:00 13 3 28 120° SO
Sa, 13.08. 8:00 2 1 4 30° NO
Sa, 13.08. 2:00 4 1 18 40° NO
Ortszeit Stärke Spitze Richtung
km/h Bft. km/h Grad Sektor
So, 14.08. 20:00 13 3 28 90° O
So, 14.08. 19:50 13 3 - 90° O
So, 14.08. 19:40 13 3 - 80° O
So, 14.08. 19:30 13 3 22 80° O
So, 14.08. 19:20 13 3 - 80° O
So, 14.08. 19:10 14 3 - 80° O
So, 14.08. 19:00 13 3 24 80° O
So, 14.08. 18:30 13 3 20 100° O
So, 14.08. 18:00 13 3 22 90° O
So, 14.08. 17:30 11 2 20 120° SO
So, 14.08. 17:00 9 2 19 130° SO
Ortszeit Untergrenze Bedeckung Gattung
total tief tief mittel hoch
So, 14.08. 20:00 8700 m 7/8 0/8 - - -
So, 14.08. 14:00 - 0/8 0/8 - - -
So, 14.08. 8:00 3300 m 3/8 3/8 - - -
So, 14.08. 2:00 3900 m 8/8 8/8 - - -
Sa, 13.08. 20:00 3300 m 8/8 8/8 - - -
Sa, 13.08. 14:00 2100 m 5/8 2/8 - - -
Sa, 13.08. 8:00 9000 m 8/8 0/8 - - -
Sa, 13.08. 2:00 - 0/8 0/8 - - -
Ortszeit Bedeckungsgrad in Achtel und Wolkenuntergrenze
So, 14.08. 20:00 4(8700m) 5(9000m) 7(9000m)
So, 14.08. 19:50 4(8700m) 5(9000m) 7(9000m)
So, 14.08. 19:40 8
So, 14.08. 19:30 8(8700m)
So, 14.08. 19:20 8(8700m)
So, 14.08. 19:10 8
So, 14.08. 19:00 4(8700m) 5(9000m)
So, 14.08. 18:30 3(8700m) 6(9000m)
So, 14.08. 18:00 7(8700m)
So, 14.08. 17:30 7(8700m) 8(9000m)
So, 14.08. 17:00 8(8700m)
Ortszeit Luftdruck NN (hPa) Tendenz (hPa in 3 Std.)
So, 14.08. 20:00 1008 - 1,0
So, 14.08. 14:00 1011 - 1,5
So, 14.08. 8:00 1014 - 0,9
So, 14.08. 2:00 1016 - 1,1
Sa, 13.08. 20:00 1016 - 1,4
Sa, 13.08. 14:00 1019 - 0,9
Sa, 13.08. 8:00 1020 - 0,1
Sa, 13.08. 2:00 1021 0,0
Ortszeit Luftdruck NN (hPa) Tendenz (hPa in 3 Std.)
So, 14.08. 20:00 1008 - 1,0
So, 14.08. 19:50 1008 keine Meldung
So, 14.08. 19:40 1008 keine Meldung
So, 14.08. 19:30 1008 - 1,3
So, 14.08. 19:20 1008 keine Meldung
So, 14.08. 19:10 1008 keine Meldung
So, 14.08. 19:00 1008 - 1,5
So, 14.08. 18:30 1009 - 1,5
So, 14.08. 18:00 1009 - 2,0
So, 14.08. 17:30 1009 - 2,0
So, 14.08. 17:00 1009 - 2,2
Ortszeit Schneehöhe (cm)
So, 14.08. 20:00 0
So, 14.08. 14:00 0
So, 14.08. 8:00 0
So, 14.08. 2:00 0
Sa, 13.08. 20:00 0
Sa, 13.08. 14:00 0
Sa, 13.08. 8:00 0
Sa, 13.08. 2:00 0
Ortszeit Schneehöhe (cm)
So, 14.08. 20:00 0
So, 14.08. 19:50 0
So, 14.08. 19:40 0
So, 14.08. 19:30 0
So, 14.08. 19:20 0
So, 14.08. 19:10 0
So, 14.08. 19:00 0
So, 14.08. 18:30 0
So, 14.08. 18:00 0
So, 14.08. 17:30 0
So, 14.08. 17:00 0
Link zu dieser Seite / Seite empfehlen

Das Wetter in ...